Time;durP1;ratioP1;P1;durP2;ratioP2;P2;SDS_P1;SDS_P2;PMS_P1;PMS_P2;Temp;Humidity;BMP_temperature;BMP_pressure;BME280_temperature;BME280_humidity;BME280_pressure;Samples;Min_cycle;Max_cycle;Signal;HPM_P1;HPM_P2
2023/03/06 00:00:40;;;;;;;100.40;9.40;;;;;;;;;;5027559;28;20033;-61
2023/03/06 00:03:05;;;;;;;78.15;9.57;;;;;;;;;;5026463;28;20143;-59
2023/03/06 00:05:30;;;;;;;97.28;9.13;;;;;;;;;;5026057;28;20688;-60
2023/03/06 00:07:56;;;;;;;117.70;10.40;;;;;;;;;;5026884;28;20025;-60
2023/03/06 00:10:23;;;;;;;97.25;9.02;;;;;;;;;;5028048;28;20041;-61
2023/03/06 00:12:50;;;;;;;109.47;9.95;;;;;;;;;;5027543;28;20021;-59
2023/03/06 00:15:15;;;;;;;84.53;9.27;;;;;;;;;;5027245;28;20711;-60
2023/03/06 00:17:40;;;;;;;102.78;9.55;;;;;;;;;;5028246;28;20573;-61
2023/03/06 00:20:06;;;;;;;112.30;9.30;;;;;;;;;;5027968;28;20021;-61
2023/03/06 00:22:32;;;;;;;129.15;10.93;;;;;;;;;;5026938;28;20260;-62
2023/03/06 00:24:57;;;;;;;114.97;9.95;;;;;;;;;;5027169;28;20464;-61
2023/03/06 00:27:25;;;;;;;110.63;9.77;;;;;;;;;;5027948;28;20033;-60
2023/03/06 00:29:53;;;;;;;99.57;9.55;;;;;;;;;;5025452;28;20116;-60
2023/03/06 00:32:19;;;;;;;114.60;9.93;;;;;;;;;;5023660;28;20037;-62
2023/03/06 00:34:47;;;;;;;136.38;11.15;;;;;;;;;;5026833;28;20475;-61
2023/03/06 00:37:12;;;;;;;154.68;11.98;;;;;;;;;;5024299;28;20033;-60
2023/03/06 00:39:37;;;;;;;129.97;11.43;;;;;;;;;;5027215;28;20021;-60
2023/03/06 00:42:02;;;;;;;105.15;10.52;;;;;;;;;;5025066;28;20269;-61
2023/03/06 00:44:28;;;;;;;113.35;10.82;;;;;;;;;;5028332;28;20033;-60
2023/03/06 00:46:53;;;;;;;92.23;10.03;;;;;;;;;;5025585;28;20032;-62
2023/03/06 00:49:18;;;;;;;114.70;11.07;;;;;;;;;;5026407;28;20367;-60
2023/03/06 00:51:43;;;;;;;88.53;8.07;;;;;;;;;;5026428;28;20248;-61
2023/03/06 00:54:08;;;;;;;86.53;9.60;;;;;;;;;;5030131;28;20783;-62
2023/03/06 00:56:34;;;;;;;126.20;11.05;;;;;;;;;;5025374;28;20033;-60
2023/03/06 00:58:59;;;;;;;132.07;9.50;;;;;;;;;;5026211;28;20041;-60
2023/03/06 01:01:24;;;;;;;122.50;10.93;;;;;;;;;;5025353;28;20263;-60
2023/03/06 01:03:49;;;;;;;122.20;11.40;;;;;;;;;;5025830;28;20276;-60
2023/03/06 01:06:15;;;;;;;95.80;10.13;;;;;;;;;;5024622;28;20060;-60
2023/03/06 01:08:40;;;;;;;108.07;10.10;;;;;;;;;;5026372;28;20272;-61
2023/03/06 01:11:05;;;;;;;91.50;9.07;;;;;;;;;;5025169;28;20041;-60
2023/03/06 01:13:30;;;;;;;111.47;10.77;;;;;;;;;;5026231;28;20052;-60
2023/03/06 01:16:04;;;;;;;124.07;11.33;;;;;;;;;;5025110;28;20025;-60
2023/03/06 01:18:29;;;;;;;105.72;10.15;;;;;;;;;;5027091;28;20251;-60
2023/03/06 01:20:54;;;;;;;98.35;9.18;;;;;;;;;;5025539;28;20782;-60
2023/03/06 01:23:19;;;;;;;107.53;9.45;;;;;;;;;;5025874;28;20120;-61
2023/03/06 01:25:44;;;;;;;84.23;9.53;;;;;;;;;;5027007;28;20272;-61
2023/03/06 01:28:10;;;;;;;116.95;10.05;;;;;;;;;;5024578;28;20704;-60
2023/03/06 01:30:35;;;;;;;102.70;10.57;;;;;;;;;;5025779;28;20105;-59
2023/03/06 01:33:00;;;;;;;98.13;9.18;;;;;;;;;;5026904;28;20034;-61
2023/03/06 01:35:25;;;;;;;139.38;11.30;;;;;;;;;;5025197;28;20026;-62
2023/03/06 01:37:50;;;;;;;97.28;10.60;;;;;;;;;;5025873;28;20024;-60
2023/03/06 01:40:16;;;;;;;97.57;10.23;;;;;;;;;;5026844;28;20021;-61
2023/03/06 01:42:41;;;;;;;109.00;10.48;;;;;;;;;;5026759;28;20475;-60
2023/03/06 01:45:26;;;;;;;97.88;10.00;;;;;;;;;;5025636;28;20021;-62
2023/03/06 01:47:52;;;;;;;108.10;10.63;;;;;;;;;;5026208;28;20037;-61
2023/03/06 01:50:17;;;;;;;92.95;9.98;;;;;;;;;;5027106;28;20033;-60
2023/03/06 01:52:44;;;;;;;127.18;11.57;;;;;;;;;;5025906;28;20099;-61
2023/03/06 01:55:12;;;;;;;84.00;10.05;;;;;;;;;;5026668;28;20663;-62
2023/03/06 01:57:41;;;;;;;93.28;9.57;;;;;;;;;;5025830;28;20483;-60
2023/03/06 02:00:12;;;;;;;109.93;10.65;;;;;;;;;;5026268;28;20031;-61
2023/03/06 02:02:39;;;;;;;125.00;10.57;;;;;;;;;;5026089;28;20037;-60
2023/03/06 02:05:05;;;;;;;109.13;10.80;;;;;;;;;;5024699;28;20108;-61
2023/03/06 02:07:30;;;;;;;115.43;10.73;;;;;;;;;;5025312;28;20057;-60
2023/03/06 02:09:56;;;;;;;103.22;10.52;;;;;;;;;;5031006;28;20620;-60
2023/03/06 02:12:21;;;;;;;98.03;9.95;;;;;;;;;;5031292;28;20044;-61
2023/03/06 02:14:47;;;;;;;125.93;11.70;;;;;;;;;;5028328;28;20504;-60
2023/03/06 02:17:13;;;;;;;100.90;8.88;;;;;;;;;;5030862;28;20065;-60
2023/03/06 02:19:42;;;;;;;105.60;9.88;;;;;;;;;;5030376;28;20030;-59
2023/03/06 02:22:07;;;;;;;97.50;9.68;;;;;;;;;;5029882;28;20037;-61
2023/03/06 02:24:38;;;;;;;126.40;10.07;;;;;;;;;;5028549;28;20032;-60
2023/03/06 02:27:05;;;;;;;103.20;11.15;;;;;;;;;;5028315;28;20049;-60
2023/03/06 02:29:30;;;;;;;101.72;10.00;;;;;;;;;;5028853;28;20013;-60
2023/03/06 02:31:56;;;;;;;96.72;9.93;;;;;;;;;;5030889;28;20032;-61
2023/03/06 02:34:21;;;;;;;94.68;10.80;;;;;;;;;;5028201;28;20039;-59
2023/03/06 02:36:48;;;;;;;122.23;10.50;;;;;;;;;;5029179;28;20538;-60
2023/03/06 02:39:14;;;;;;;101.05;10.45;;;;;;;;;;5031346;28;20295;-61
2023/03/06 02:41:39;;;;;;;96.43;9.75;;;;;;;;;;5029728;28;20060;-62
2023/03/06 02:44:04;;;;;;;114.78;9.70;;;;;;;;;;5028880;28;20025;-62
2023/03/06 02:46:30;;;;;;;105.18;9.02;;;;;;;;;;5030017;28;20819;-59
2023/03/06 02:48:55;;;;;;;99.57;9.98;;;;;;;;;;5030249;28;20029;-61
2023/03/06 02:51:20;;;;;;;94.82;8.65;;;;;;;;;;5031412;28;20145;-61
2023/03/06 02:53:46;;;;;;;90.70;9.52;;;;;;;;;;5032333;28;20024;-60
2023/03/06 02:56:11;;;;;;;110.60;10.65;;;;;;;;;;5029320;28;20527;-61
2023/03/06 02:58:36;;;;;;;98.85;10.40;;;;;;;;;;5029434;28;20061;-60
2023/03/06 03:01:02;;;;;;;104.25;10.65;;;;;;;;;;5029380;28;20029;-60
2023/03/06 03:03:27;;;;;;;126.75;11.40;;;;;;;;;;5029195;28;20082;-60
2023/03/06 03:05:52;;;;;;;109.30;10.20;;;;;;;;;;5026967;28;20108;-61
2023/03/06 03:08:17;;;;;;;90.30;9.18;;;;;;;;;;5031511;28;20489;-61
2023/03/06 03:10:43;;;;;;;116.28;11.25;;;;;;;;;;5029108;28;20044;-61
2023/03/06 03:13:08;;;;;;;92.38;10.63;;;;;;;;;;5029229;28;20030;-61
2023/03/06 03:15:33;;;;;;;107.30;10.55;;;;;;;;;;5028140;28;20040;-60
2023/03/06 03:17:58;;;;;;;105.57;10.23;;;;;;;;;;5030448;28;20034;-60
2023/03/06 03:20:24;;;;;;;97.72;10.40;;;;;;;;;;5029371;28;20017;-62
2023/03/06 03:22:50;;;;;;;110.25;9.57;;;;;;;;;;5025313;28;20060;-60
2023/03/06 03:25:15;;;;;;;104.18;8.75;;;;;;;;;;5030298;28;20044;-60
2023/03/06 03:27:41;;;;;;;83.93;9.05;;;;;;;;;;5026642;28;20080;-60
2023/03/06 03:30:06;;;;;;;118.75;10.40;;;;;;;;;;5035285;28;20043;-61
2023/03/06 03:32:32;;;;;;;113.20;10.77;;;;;;;;;;5028906;28;20618;-60
2023/03/06 03:34:57;;;;;;;113.95;10.30;;;;;;;;;;5028600;28;20022;-61
2023/03/06 03:37:22;;;;;;;104.47;10.60;;;;;;;;;;5028749;28;20041;-60
2023/03/06 03:39:47;;;;;;;106.80;10.35;;;;;;;;;;5030597;28;20032;-60
2023/03/06 03:42:13;;;;;;;107.50;11.85;;;;;;;;;;5029141;28;20091;-59
2023/03/06 03:44:38;;;;;;;129.10;13.10;;;;;;;;;;5028080;28;20562;-61
2023/03/06 03:47:04;;;;;;;94.32;9.98;;;;;;;;;;5028011;28;20049;-61
2023/03/06 03:49:29;;;;;;;146.65;12.40;;;;;;;;;;5028579;28;20054;-59
2023/03/06 03:51:54;;;;;;;97.80;11.18;;;;;;;;;;5027195;28;20116;-61
2023/03/06 03:54:19;;;;;;;102.60;10.53;;;;;;;;;;5028112;28;20047;-60
2023/03/06 03:56:45;;;;;;;110.00;10.88;;;;;;;;;;5027982;28;20864;-60
2023/03/06 03:59:10;;;;;;;105.75;10.80;;;;;;;;;;5028868;28;20024;-60
2023/03/06 04:01:35;;;;;;;102.88;10.27;;;;;;;;;;5027678;28;20405;-60
2023/03/06 04:04:00;;;;;;;102.85;10.13;;;;;;;;;;5026961;28;20028;-61
2023/03/06 04:06:26;;;;;;;95.68;10.63;;;;;;;;;;5027223;28;20076;-60
2023/03/06 04:08:51;;;;;;;123.38;11.57;;;;;;;;;;5027810;28;20494;-59
2023/03/06 04:11:16;;;;;;;122.57;11.23;;;;;;;;;;5026657;28;20040;-62
2023/03/06 04:13:41;;;;;;;83.20;10.23;;;;;;;;;;5028221;28;20025;-62
2023/03/06 04:16:07;;;;;;;120.18;9.40;;;;;;;;;;5028783;28;20091;-61
2023/03/06 04:18:32;;;;;;;72.22;9.98;;;;;;;;;;5027784;28;20013;-61
2023/03/06 04:20:57;;;;;;;96.38;11.10;;;;;;;;;;5026944;28;20033;-61
2023/03/06 04:23:26;;;;;;;108.15;10.55;;;;;;;;;;5027545;28;20022;-61
2023/03/06 04:25:52;;;;;;;95.10;9.40;;;;;;;;;;5029058;28;20030;-60
2023/03/06 04:28:17;;;;;;;102.90;10.30;;;;;;;;;;5028053;28;20025;-61
2023/03/06 04:30:42;;;;;;;103.47;10.60;;;;;;;;;;5027157;28;20029;-61
2023/03/06 04:33:07;;;;;;;105.93;10.95;;;;;;;;;;5027947;28;20607;-61
2023/03/06 04:35:33;;;;;;;107.30;8.13;;;;;;;;;;5028964;28;20459;-61
2023/03/06 04:37:58;;;;;;;106.03;11.00;;;;;;;;;;5028186;28;20112;-60
2023/03/06 04:40:27;;;;;;;106.28;10.57;;;;;;;;;;5027497;28;20101;-60
2023/03/06 04:42:52;;;;;;;113.30;11.00;;;;;;;;;;5025726;28;20017;-60
2023/03/06 04:45:17;;;;;;;85.50;10.52;;;;;;;;;;5026886;28;20020;-59
2023/03/06 04:47:42;;;;;;;122.72;10.98;;;;;;;;;;5028317;28;20021;-61
2023/03/06 04:50:08;;;;;;;87.72;8.82;;;;;;;;;;5025830;28;20025;-60
2023/03/06 04:52:33;;;;;;;121.57;11.35;;;;;;;;;;5026649;28;20028;-59
2023/03/06 04:54:59;;;;;;;118.15;11.55;;;;;;;;;;5025717;28;20079;-60
2023/03/06 04:57:24;;;;;;;113.60;11.57;;;;;;;;;;5026556;28;20090;-60
2023/03/06 04:59:49;;;;;;;98.60;10.23;;;;;;;;;;5026707;28;20032;-58
2023/03/06 05:02:15;;;;;;;111.35;9.32;;;;;;;;;;5027980;28;20896;-59
2023/03/06 05:04:40;;;;;;;142.73;13.05;;;;;;;;;;5026258;28;20052;-59
2023/03/06 05:07:05;;;;;;;127.15;11.18;;;;;;;;;;5025694;28;20077;-59
2023/03/06 05:09:32;;;;;;;97.50;9.70;;;;;;;;;;5026194;28;20112;-59
2023/03/06 05:11:57;;;;;;;101.10;11.57;;;;;;;;;;5025293;28;20071;-60
2023/03/06 05:14:23;;;;;;;143.23;12.20;;;;;;;;;;5024617;28;20501;-59
2023/03/06 05:16:48;;;;;;;106.07;10.10;;;;;;;;;;5025941;28;20029;-60
2023/03/06 05:19:13;;;;;;;107.00;11.25;;;;;;;;;;5026323;28;20025;-59
2023/03/06 05:21:38;;;;;;;149.73;11.57;;;;;;;;;;5025208;28;20033;-59
2023/03/06 05:24:03;;;;;;;128.53;11.67;;;;;;;;;;5024246;28;20264;-60
2023/03/06 05:26:29;;;;;;;115.78;11.23;;;;;;;;;;5026583;28;20399;-59
2023/03/06 05:28:54;;;;;;;102.70;10.85;;;;;;;;;;5026690;28;20095;-59
2023/03/06 05:31:20;;;;;;;104.20;11.05;;;;;;;;;;5022833;28;20295;-60
2023/03/06 05:33:45;;;;;;;122.82;12.40;;;;;;;;;;5025753;28;20033;-59
2023/03/06 05:36:10;;;;;;;117.90;11.85;;;;;;;;;;5024563;28;20038;-59
2023/03/06 05:38:35;;;;;;;116.40;11.13;;;;;;;;;;5026610;28;20017;-61
2023/03/06 05:41:01;;;;;;;104.75;9.43;;;;;;;;;;5022888;28;20841;-61
2023/03/06 05:43:26;;;;;;;123.35;10.88;;;;;;;;;;5023787;28;20108;-59
2023/03/06 05:45:58;;;;;;;114.13;12.48;;;;;;;;;;5026409;28;20102;-59
2023/03/06 05:48:23;;;;;;;127.38;12.07;;;;;;;;;;5025906;28;20033;-58
2023/03/06 05:50:53;;;;;;;125.93;11.88;;;;;;;;;;5027808;28;20068;-59
2023/03/06 05:53:18;;;;;;;126.05;11.32;;;;;;;;;;5025308;28;20605;-60
2023/03/06 05:55:44;;;;;;;118.13;10.70;;;;;;;;;;5025145;28;20047;-60
2023/03/06 05:58:09;;;;;;;127.47;12.45;;;;;;;;;;5026422;28;20263;-61
2023/03/06 06:00:34;;;;;;;101.40;10.80;;;;;;;;;;5026001;28;20029;-61
2023/03/06 06:03:01;;;;;;;101.60;11.25;;;;;;;;;;5027244;28;20048;-61
2023/03/06 06:05:26;;;;;;;132.85;12.70;;;;;;;;;;5027274;28;20029;-62
2023/03/06 06:07:51;;;;;;;103.32;11.20;;;;;;;;;;5025145;28;20560;-61
2023/03/06 06:10:16;;;;;;;106.95;9.30;;;;;;;;;;5026939;28;20137;-63
2023/03/06 06:12:41;;;;;;;127.85;11.18;;;;;;;;;;5025302;28;20048;-60
2023/03/06 06:15:07;;;;;;;104.18;11.85;;;;;;;;;;5026100;28;20020;-62
2023/03/06 06:17:32;;;;;;;122.60;11.00;;;;;;;;;;5027897;28;20459;-59
2023/03/06 06:19:57;;;;;;;112.93;11.60;;;;;;;;;;5025840;28;20108;-59
2023/03/06 06:22:23;;;;;;;111.35;12.43;;;;;;;;;;5027460;28;20036;-60
2023/03/06 06:24:48;;;;;;;174.35;14.15;;;;;;;;;;5026545;28;20094;-61
2023/03/06 06:27:13;;;;;;;114.60;12.20;;;;;;;;;;5023924;28;20145;-65
2023/03/06 06:29:38;;;;;;;116.07;12.73;;;;;;;;;;5025369;28;20259;-61
2023/03/06 06:32:04;;;;;;;136.52;12.98;;;;;;;;;;5024449;28;20102;-61
2023/03/06 06:34:30;;;;;;;110.53;11.63;;;;;;;;;;5024865;28;20049;-60
2023/03/06 06:36:56;;;;;;;120.30;11.95;;;;;;;;;;5026199;28;20029;-62
2023/03/06 06:39:22;;;;;;;106.13;11.50;;;;;;;;;;5025564;28;20602;-60
2023/03/06 06:41:50;;;;;;;108.20;11.35;;;;;;;;;;5025183;28;20037;-61
2023/03/06 06:44:16;;;;;;;137.82;12.63;;;;;;;;;;5027035;28;20060;-60
2023/03/06 06:46:44;;;;;;;104.50;11.50;;;;;;;;;;5026156;28;20034;-59
2023/03/06 06:49:09;;;;;;;115.78;10.82;;;;;;;;;;5026838;28;20474;-61
2023/03/06 06:51:34;;;;;;;109.82;10.32;;;;;;;;;;5025684;28;20083;-62
2023/03/06 06:54:00;;;;;;;108.45;11.05;;;;;;;;;;5027827;28;20829;-60
2023/03/06 06:56:25;;;;;;;136.82;12.70;;;;;;;;;;5030093;28;20059;-62
2023/03/06 06:58:55;;;;;;;112.95;11.77;;;;;;;;;;5030476;28;20067;-61
2023/03/06 07:01:21;;;;;;;107.55;10.77;;;;;;;;;;5029212;28;20499;-61
2023/03/06 07:03:46;;;;;;;93.70;10.57;;;;;;;;;;5029696;28;20044;-60
2023/03/06 07:06:11;;;;;;;96.22;9.18;;;;;;;;;;5029908;28;20132;-63
2023/03/06 07:08:36;;;;;;;125.63;14.70;;;;;;;;;;5027347;28;20055;-63
2023/03/06 07:11:06;;;;;;;115.43;14.52;;;;;;;;;;5029098;28;20195;-61
2023/03/06 07:13:32;;;;;;;97.20;10.75;;;;;;;;;;5029199;28;20018;-63
2023/03/06 07:15:57;;;;;;;122.53;11.98;;;;;;;;;;5027599;28;20075;-62
2023/03/06 07:18:22;;;;;;;107.72;9.43;;;;;;;;;;5029446;28;20025;-62
2023/03/06 07:20:47;;;;;;;116.07;12.45;;;;;;;;;;5028316;28;20495;-63
2023/03/06 07:23:13;;;;;;;97.97;11.95;;;;;;;;;;5029137;28;20029;-63
2023/03/06 07:25:38;;;;;;;98.78;11.82;;;;;;;;;;5027267;28;20373;-61
2023/03/06 07:28:04;;;;;;;113.50;11.63;;;;;;;;;;5027630;28;20029;-62
2023/03/06 07:30:29;;;;;;;109.68;11.80;;;;;;;;;;5028761;28;20052;-64
2023/03/06 07:32:55;;;;;;;114.25;12.70;;;;;;;;;;5030470;28;20052;-66
2023/03/06 07:35:21;;;;;;;122.45;9.75;;;;;;;;;;5028778;28;20147;-62
2023/03/06 07:37:46;;;;;;;103.28;10.30;;;;;;;;;;5029042;28;20400;-64
2023/03/06 07:40:11;;;;;;;86.80;10.85;;;;;;;;;;5027413;28;20083;-62
2023/03/06 07:42:37;;;;;;;128.77;11.32;;;;;;;;;;5028087;28;20030;-62
2023/03/06 07:45:02;;;;;;;113.88;9.75;;;;;;;;;;5028081;28;20018;-61
2023/03/06 07:47:28;;;;;;;131.38;13.48;;;;;;;;;;5026567;28;20061;-64
2023/03/06 07:49:55;;;;;;;109.68;9.60;;;;;;;;;;5027602;28;20025;-62
2023/03/06 07:52:20;;;;;;;122.50;12.68;;;;;;;;;;5027075;28;20033;-61
2023/03/06 07:54:46;;;;;;;175.25;13.63;;;;;;;;;;5025622;28;20441;-62
2023/03/06 07:57:12;;;;;;;103.97;12.25;;;;;;;;;;5026498;28;20116;-61
2023/03/06 07:59:37;;;;;;;129.00;12.32;;;;;;;;;;5026723;28;20438;-62
2023/03/06 08:02:03;;;;;;;102.05;10.60;;;;;;;;;;5029740;28;20815;-63
2023/03/06 08:04:28;;;;;;;98.18;10.63;;;;;;;;;;5027401;28;20080;-62
2023/03/06 08:06:56;;;;;;;122.75;12.82;;;;;;;;;;5027382;28;20037;-63
2023/03/06 08:09:21;;;;;;;79.90;9.15;;;;;;;;;;5030582;28;20113;-62
2023/03/06 08:11:46;;;;;;;98.72;12.23;;;;;;;;;;5026210;28;20493;-62
2023/03/06 08:14:12;;;;;;;97.30;11.23;;;;;;;;;;5029248;28;20736;-60
2023/03/06 08:16:37;;;;;;;108.05;11.20;;;;;;;;;;5027457;28;20112;-62
2023/03/06 08:19:02;;;;;;;117.93;11.57;;;;;;;;;;5027746;28;20049;-61
2023/03/06 08:21:27;;;;;;;112.97;10.95;;;;;;;;;;5027942;28;20533;-62
2023/03/06 08:23:53;;;;;;;103.47;11.25;;;;;;;;;;5028356;28;20451;-61
2023/03/06 08:26:20;;;;;;;112.65;11.60;;;;;;;;;;5029151;28;20140;-60
2023/03/06 08:28:46;;;;;;;100.75;10.30;;;;;;;;;;5028786;28;20799;-61
2023/03/06 08:31:14;;;;;;;98.07;13.07;;;;;;;;;;5028802;28;20064;-61
2023/03/06 08:33:40;;;;;;;100.82;13.57;;;;;;;;;;5026680;28;20256;-60
2023/03/06 08:36:05;;;;;;;99.13;11.07;;;;;;;;;;5027058;28;20991;-61
2023/03/06 08:38:30;;;;;;;112.93;14.35;;;;;;;;;;5029701;28;20352;-61
2023/03/06 08:40:55;;;;;;;104.73;10.63;;;;;;;;;;5027943;28;20632;-60
2023/03/06 08:43:21;;;;;;;96.55;9.80;;;;;;;;;;5028475;28;20824;-60
2023/03/06 08:45:52;;;;;;;117.10;13.50;;;;;;;;;;5027667;28;20112;-62
2023/03/06 08:48:18;;;;;;;117.13;12.70;;;;;;;;;;5029437;28;20498;-61
2023/03/06 08:50:43;;;;;;;101.60;12.27;;;;;;;;;;5026620;28;20075;-62
2023/03/06 08:53:08;;;;;;;83.30;8.75;;;;;;;;;;5026521;28;20283;-62
2023/03/06 08:55:36;;;;;;;86.70;7.53;;;;;;;;;;5027166;28;20029;-60
2023/03/06 08:58:03;;;;;;;107.15;12.70;;;;;;;;;;5027024;28;20024;-62
2023/03/06 09:00:28;;;;;;;115.32;12.35;;;;;;;;;;5026626;28;20215;-61
2023/03/06 09:02:53;;;;;;;110.22;8.50;;;;;;;;;;5027187;28;20029;-61
2023/03/06 09:05:19;;;;;;;100.00;10.37;;;;;;;;;;5027911;28;20189;-61
2023/03/06 09:07:44;;;;;;;118.65;11.48;;;;;;;;;;5028358;28;20255;-63
2023/03/06 09:10:16;;;;;;;87.55;11.18;;;;;;;;;;5026976;28;21012;-63
2023/03/06 09:12:42;;;;;;;89.88;10.70;;;;;;;;;;5026831;28;20404;-61
2023/03/06 09:15:08;;;;;;;93.45;10.93;;;;;;;;;;5025007;28;20439;-63
2023/03/06 09:17:33;;;;;;;110.78;11.68;;;;;;;;;;5026928;28;20028;-62
2023/03/06 09:19:58;;;;;;;92.07;8.27;;;;;;;;;;5027095;28;20017;-62
2023/03/06 09:22:24;;;;;;;96.90;11.88;;;;;;;;;;5027377;28;20259;-62
2023/03/06 09:24:49;;;;;;;129.00;10.57;;;;;;;;;;5025760;28;20112;-60
2023/03/06 09:27:14;;;;;;;85.35;9.00;;;;;;;;;;5026828;28;20267;-63
2023/03/06 09:29:40;;;;;;;121.65;12.43;;;;;;;;;;5026893;28;20390;-60
2023/03/06 09:32:05;;;;;;;117.33;11.10;;;;;;;;;;5026718;28;20430;-62
2023/03/06 09:34:30;;;;;;;113.18;13.15;;;;;;;;;;5028397;28;20409;-62
2023/03/06 09:36:55;;;;;;;105.88;10.63;;;;;;;;;;5024327;28;20033;-62
2023/03/06 09:39:21;;;;;;;89.22;9.00;;;;;;;;;;5027975;28;20026;-61
2023/03/06 09:41:48;;;;;;;91.68;12.73;;;;;;;;;;5025618;28;20025;-62
2023/03/06 09:44:14;;;;;;;106.55;10.63;;;;;;;;;;5026867;28;20733;-63
2023/03/06 09:46:42;;;;;;;95.65;9.05;;;;;;;;;;5026784;28;20082;-63
2023/03/06 09:49:09;;;;;;;122.85;12.75;;;;;;;;;;5027750;28;20032;-60
2023/03/06 09:52:00;;;;;;;95.07;10.70;;;;;;;;;;5027667;28;20074;-64
2023/03/06 09:54:33;;;;;;;104.90;10.30;;;;;;;;;;5014193;28;20376;-63
2023/03/06 09:56:58;;;;;;;98.43;10.00;;;;;;;;;;5026854;28;20029;-61
2023/03/06 09:59:24;;;;;;;127.47;12.53;;;;;;;;;;5026645;28;20088;-64
2023/03/06 10:02:00;;;;;;;94.93;11.10;;;;;;;;;;5026416;28;20264;-63
2023/03/06 10:04:42;;;;;;;94.97;8.52;;;;;;;;;;5026363;28;20025;-61
2023/03/06 10:07:27;;;;;;;96.10;11.20;;;;;;;;;;5027646;28;20033;-61
2023/03/06 10:09:56;;;;;;;96.47;10.15;;;;;;;;;;4996266;28;20037;-63
2023/03/06 10:12:47;;;;;;;86.35;10.70;;;;;;;;;;5026425;28;20494;-62
2023/03/06 10:15:13;;;;;;;105.30;13.93;;;;;;;;;;5000777;28;20049;-63
2023/03/06 10:17:39;;;;;;;85.88;11.30;;;;;;;;;;5026460;28;20024;-61
2023/03/06 10:20:16;;;;;;;93.28;9.70;;;;;;;;;;5024688;28;20032;-62
2023/03/06 10:22:51;;;;;;;98.75;11.25;;;;;;;;;;5026518;28;20050;-63
2023/03/06 10:25:35;;;;;;;109.32;11.05;;;;;;;;;;5026517;28;20021;-61
2023/03/06 10:28:03;;;;;;;96.28;9.32;;;;;;;;;;5027268;28;20029;-63
2023/03/06 10:30:44;;;;;;;97.63;14.35;;;;;;;;;;5029835;28;20052;-62
2023/03/06 10:33:21;;;;;;;109.03;12.30;;;;;;;;;;5029187;28;20708;-63
2023/03/06 10:35:53;;;;;;;100.97;12.13;;;;;;;;;;5029373;28;20048;-63
2023/03/06 10:38:21;;;;;;;124.47;15.70;;;;;;;;;;5029354;28;20017;-62
2023/03/06 10:41:07;;;;;;;109.95;13.65;;;;;;;;;;5030068;28;20076;-65
2023/03/06 10:43:34;;;;;;;120.40;13.38;;;;;;;;;;5031026;28;20398;-62
2023/03/06 10:45:59;;;;;;;107.63;14.65;;;;;;;;;;5029007;28;20044;-64
2023/03/06 10:48:25;;;;;;;99.82;13.73;;;;;;;;;;5029977;28;20026;-61
2023/03/06 10:50:52;;;;;;;118.25;17.20;;;;;;;;;;5029656;28;20034;-63
2023/03/06 10:53:29;;;;;;;111.35;15.77;;;;;;;;;;5028964;28;20025;-63
2023/03/06 10:55:57;;;;;;;104.20;16.85;;;;;;;;;;5027924;28;20032;-63
2023/03/06 10:58:24;;;;;;;111.28;16.42;;;;;;;;;;5029589;28;20025;-63
2023/03/06 11:01:05;;;;;;;128.77;14.98;;;;;;;;;;5030281;28;20067;-62
2023/03/06 11:03:31;;;;;;;102.88;13.13;;;;;;;;;;5030630;28;20022;-63
2023/03/06 11:06:05;;;;;;;120.25;15.15;;;;;;;;;;5029164;28;20099;-62
2023/03/06 11:08:31;;;;;;;92.20;12.63;;;;;;;;;;5029650;28;20035;-63
2023/03/06 11:11:05;;;;;;;97.53;11.88;;;;;;;;;;5028811;28;20025;-63
2023/03/06 11:13:32;;;;;;;89.18;10.63;;;;;;;;;;5030382;28;20102;-62
2023/03/06 11:16:02;;;;;;;86.55;11.93;;;;;;;;;;5029637;28;20273;-64
2023/03/06 11:18:34;;;;;;;94.22;10.80;;;;;;;;;;5028835;28;20025;-64
2023/03/06 11:20:59;;;;;;;100.10;11.57;;;;;;;;;;5028458;28;20034;-63
2023/03/06 11:23:35;;;;;;;102.95;11.20;;;;;;;;;;5030020;28;20040;-64
2023/03/06 11:26:15;;;;;;;100.38;10.23;;;;;;;;;;5029444;28;20049;-63
2023/03/06 11:28:59;;;;;;;114.13;9.27;;;;;;;;;;5027355;28;20036;-62
2023/03/06 11:31:31;;;;;;;108.78;10.52;;;;;;;;;;5028694;28;20034;-63
2023/03/06 11:34:08;;;;;;;96.32;11.25;;;;;;;;;;5029008;28;20387;-64
2023/03/06 11:36:44;;;;;;;121.22;14.65;;;;;;;;;;5026671;28;20522;-64
2023/03/06 11:39:25;;;;;;;97.40;11.35;;;;;;;;;;5030870;28;20115;-63
2023/03/06 11:42:05;;;;;;;100.25;11.07;;;;;;;;;;5029141;28;20038;-61
2023/03/06 11:44:40;;;;;;;94.10;13.27;;;;;;;;;;5032607;28;20502;-62
2023/03/06 11:47:05;;;;;;;95.00;11.68;;;;;;;;;;5028386;28;20123;-63
2023/03/06 11:49:44;;;;;;;116.15;12.98;;;;;;;;;;5029888;28;20108;-64
2023/03/06 11:52:22;;;;;;;98.72;12.13;;;;;;;;;;5026640;28;20492;-62
2023/03/06 11:54:50;;;;;;;128.52;12.18;;;;;;;;;;5029348;28;20102;-63
2023/03/06 11:57:20;;;;;;;82.22;10.40;;;;;;;;;;5028853;28;20561;-63
2023/03/06 12:00:04;;;;;;;99.13;10.77;;;;;;;;;;5028355;28;20907;-62
2023/03/06 12:02:30;;;;;;;87.68;8.88;;;;;;;;;;5028080;28;20057;-65
2023/03/06 12:05:06;;;;;;;85.77;9.23;;;;;;;;;;5029249;28;20029;-65
2023/03/06 12:07:33;;;;;;;91.82;9.90;;;;;;;;;;5027393;28;20929;-63
2023/03/06 12:10:16;;;;;;;88.78;9.13;;;;;;;;;;5030374;28;20620;-64
2023/03/06 12:13:01;;;;;;;84.97;7.80;;;;;;;;;;5027502;28;20037;-62
2023/03/06 12:15:26;;;;;;;123.10;9.50;;;;;;;;;;5026447;28;20032;-62
2023/03/06 12:17:51;;;;;;;95.67;10.27;;;;;;;;;;5028433;28;20022;-63
2023/03/06 12:20:26;;;;;;;101.43;10.20;;;;;;;;;;5026485;28;20021;-61
2023/03/06 12:22:52;;;;;;;85.05;8.85;;;;;;;;;;5027834;28;20021;-62
2023/03/06 12:25:47;;;;;;;89.32;7.63;;;;;;;;;;5026563;28;20016;-64
2023/03/06 12:28:16;;;;;;;99.85;8.23;;;;;;;;;;5020408;28;20022;-64
2023/03/06 12:31:01;;;;;;;103.82;10.90;;;;;;;;;;5026968;28;20893;-63
2023/03/06 12:33:26;;;;;;;79.07;8.18;;;;;;;;;;5027495;28;20021;-61
2023/03/06 12:35:54;;;;;;;94.37;9.27;;;;;;;;;;5025467;28;20095;-62
2023/03/06 12:38:28;;;;;;;82.82;9.88;;;;;;;;;;5030299;28;20475;-63
2023/03/06 12:41:12;;;;;;;116.78;8.88;;;;;;;;;;5027762;28;20028;-65
2023/03/06 12:43:41;;;;;;;100.43;9.63;;;;;;;;;;5029489;28;20164;-63
2023/03/06 12:46:09;;;;;;;153.55;12.15;;;;;;;;;;5025758;28;20037;-64
2023/03/06 12:48:35;;;;;;;102.97;9.63;;;;;;;;;;5028032;28;20558;-64
2023/03/06 12:51:01;;;;;;;97.55;7.97;;;;;;;;;;5027066;28;20041;-61
2023/03/06 12:53:31;;;;;;;106.13;9.30;;;;;;;;;;5026706;28;20383;-62
2023/03/06 12:55:57;;;;;;;92.38;9.50;;;;;;;;;;5027338;28;20123;-64
2023/03/06 12:58:31;;;;;;;117.47;10.48;;;;;;;;;;5026562;28;20022;-64
2023/03/06 13:01:08;;;;;;;80.05;6.78;;;;;;;;;;5025928;28;20036;-64
2023/03/06 13:03:34;;;;;;;95.40;9.30;;;;;;;;;;5026842;28;20033;-62
2023/03/06 13:06:13;;;;;;;94.60;8.55;;;;;;;;;;5025115;28;20029;-65
2023/03/06 13:08:38;;;;;;;114.72;8.45;;;;;;;;;;5026126;28;20029;-65
2023/03/06 13:11:18;;;;;;;92.90;9.45;;;;;;;;;;5025513;28;20097;-64
2023/03/06 13:13:45;;;;;;;97.30;9.70;;;;;;;;;;5026297;28;20053;-63
2023/03/06 13:16:11;;;;;;;93.50;9.30;;;;;;;;;;5027385;28;20037;-65
2023/03/06 13:18:36;;;;;;;114.65;8.73;;;;;;;;;;5026518;28;20028;-62
2023/03/06 13:21:03;;;;;;;89.30;9.48;;;;;;;;;;5027027;28;20769;-64
2023/03/06 13:23:28;;;;;;;92.55;8.45;;;;;;;;;;5027659;28;20029;-64
2023/03/06 13:25:54;;;;;;;109.68;9.63;;;;;;;;;;5026485;28;20134;-63
2023/03/06 13:28:38;;;;;;;80.20;7.65;;;;;;;;;;5026720;28;20021;-63
2023/03/06 13:31:04;;;;;;;99.43;9.65;;;;;;;;;;5025307;28;20040;-63
2023/03/06 13:33:30;;;;;;;96.97;9.48;;;;;;;;;;5024104;28;20041;-64
2023/03/06 13:36:15;;;;;;;107.07;8.90;;;;;;;;;;5026833;28;20821;-61
2023/03/06 13:38:40;;;;;;;96.22;8.60;;;;;;;;;;5028313;28;20030;-62
2023/03/06 13:41:21;;;;;;;94.03;9.43;;;;;;;;;;5025350;28;20037;-65
2023/03/06 13:43:47;;;;;;;103.40;8.95;;;;;;;;;;5027790;28;20674;-64
2023/03/06 13:46:23;;;;;;;118.18;9.30;;;;;;;;;;5025557;28;20495;-63
2023/03/06 13:49:01;;;;;;;98.22;9.60;;;;;;;;;;5027108;28;20029;-63
2023/03/06 13:51:30;;;;;;;114.65;10.35;;;;;;;;;;5024988;28;20507;-62
2023/03/06 13:54:18;;;;;;;82.80;9.75;;;;;;;;;;5024474;28;20033;-62
2023/03/06 13:56:43;;;;;;;86.05;7.93;;;;;;;;;;5021386;28;20036;-63
2023/03/06 13:59:27;;;;;;;89.10;8.90;;;;;;;;;;5027017;28;20050;-65
2023/03/06 14:02:11;;;;;;;80.95;7.57;;;;;;;;;;5027552;28;20065;-65
2023/03/06 14:04:40;;;;;;;151.77;10.55;;;;;;;;;;5028273;28;20529;-65
2023/03/06 14:07:11;;;;;;;86.40;9.10;;;;;;;;;;5030705;28;20044;-65
2023/03/06 14:09:40;;;;;;;136.43;9.95;;;;;;;;;;5031469;28;20040;-64
2023/03/06 14:12:25;;;;;;;107.70;8.43;;;;;;;;;;5029983;28;20057;-65
2023/03/06 14:14:55;;;;;;;108.20;7.97;;;;;;;;;;5029799;28;20090;-64
2023/03/06 14:17:40;;;;;;;103.50;9.98;;;;;;;;;;5029630;28;20033;-63